createdAt,value
2018-03-23T00:00:16.750Z,99.99
2018-03-23T00:01:16.812Z,99.99
2018-03-23T00:02:16.827Z,99.99
2018-03-23T00:03:16.870Z,99.99
2018-03-23T00:04:16.910Z,99.99
2018-03-23T00:05:16.963Z,99.99
2018-03-23T00:06:17.024Z,99.99
2018-03-23T00:07:17.033Z,99.99
2018-03-23T00:08:17.075Z,99.99
2018-03-23T00:09:17.117Z,99.99
2018-03-23T00:10:17.158Z,99.99
2018-03-23T00:11:17.222Z,99.99
2018-03-23T00:12:17.241Z,99.99
2018-03-23T00:13:17.286Z,99.99
2018-03-23T00:14:17.359Z,99.99
2018-03-23T00:15:17.370Z,99.99
2018-03-23T00:16:17.436Z,99.99
2018-03-23T00:17:17.445Z,99.99
2018-03-23T00:18:17.488Z,99.99
2018-03-23T00:19:17.528Z,99.99
2018-03-23T00:20:17.570Z,99.99
2018-03-23T00:21:17.647Z,99.99
2018-03-23T00:22:17.650Z,99.99
2018-03-23T00:23:17.691Z,99.99
2018-03-23T00:24:17.732Z,99.99
2018-03-23T00:25:17.774Z,99.99
2018-03-23T00:26:17.838Z,99.99
2018-03-23T00:27:17.862Z,99.99
2018-03-23T00:28:17.922Z,99.99
2018-03-23T00:29:17.944Z,99.99
2018-03-23T00:30:17.982Z,99.99
2018-03-23T00:31:18.020Z,99.99
2018-03-23T00:32:18.085Z,99.99
2018-03-23T00:33:18.139Z,99.99
2018-03-23T00:34:18.149Z,99.99
2018-03-23T00:35:18.184Z,99.99
2018-03-23T00:36:18.225Z,99.99
2018-03-23T00:37:18.267Z,99.99
2018-03-23T00:38:18.340Z,99.99
2018-03-23T00:39:18.348Z,99.99
2018-03-23T00:40:18.389Z,99.99
2018-03-23T00:41:18.432Z,99.99
2018-03-23T00:42:18.471Z,99.99
2018-03-23T00:43:18.547Z,99.99
2018-03-23T00:44:18.558Z,99.99
2018-03-23T00:45:18.598Z,99.99
2018-03-23T00:46:18.639Z,99.99
2018-03-23T00:47:18.682Z,99.99
2018-03-23T00:48:18.749Z,99.99
2018-03-23T00:49:18.758Z,99.99
2018-03-23T00:50:18.801Z,99.99
2018-03-23T00:51:18.840Z,99.99
2018-03-23T00:52:18.884Z,99.99
2018-03-23T00:53:18.965Z,99.99
2018-03-23T00:54:18.966Z,99.99
2018-03-23T00:55:19.008Z,99.99
2018-03-23T00:56:19.049Z,99.99
2018-03-23T00:57:19.088Z,99.99
2018-03-23T00:58:19.155Z,99.99
2018-03-23T00:59:19.173Z,99.99
2018-03-23T01:00:19.211Z,99.99
2018-03-23T01:01:19.277Z,99.99
2018-03-23T01:02:19.295Z,99.99
2018-03-23T01:03:19.335Z,99.99
2018-03-23T01:04:19.411Z,99.99
2018-03-23T01:05:19.423Z,99.99
2018-03-23T01:06:19.459Z,99.99
2018-03-23T01:07:19.500Z,99.99
2018-03-23T01:08:19.542Z,99.99
2018-03-23T01:09:19.606Z,99.99
2018-03-23T01:10:19.627Z,99.99
2018-03-23T01:11:19.690Z,99.99
2018-03-23T01:12:19.707Z,99.99
2018-03-23T01:13:19.749Z,99.99
2018-03-23T01:14:19.797Z,99.99
2018-03-23T01:15:19.866Z,99.99
2018-03-23T01:16:19.874Z,99.99
2018-03-23T01:17:19.913Z,99.99
2018-03-23T01:18:19.955Z,99.99
2018-03-23T01:19:19.998Z,99.99
2018-03-23T01:20:20.060Z,99.99
2018-03-23T01:21:20.079Z,99.99
2018-03-23T01:22:20.120Z,99.99
2018-03-23T01:23:20.188Z,99.99
2018-03-23T01:24:20.203Z,99.99
2018-03-23T01:25:20.244Z,99.99
2018-03-23T01:26:20.305Z,99.99
2018-03-23T01:27:20.325Z,99.99
2018-03-23T01:28:20.366Z,99.99
2018-03-23T01:29:20.408Z,99.99
2018-03-23T01:30:20.449Z,99.99
2018-03-23T01:31:20.511Z,99.99
2018-03-23T01:32:20.532Z,99.99
2018-03-23T01:33:20.572Z,99.99
2018-03-23T01:34:20.614Z,99.99
2018-03-23T01:35:20.685Z,99.99
2018-03-23T01:36:20.695Z,99.99
2018-03-23T01:37:20.737Z,99.99
2018-03-23T01:38:20.777Z,99.99
2018-03-23T01:39:20.820Z,99.99
2018-03-23T01:40:20.881Z,99.99
2018-03-23T01:41:20.901Z,99.99
2018-03-23T01:42:20.961Z,99.99
2018-03-23T01:43:20.985Z,99.99
2018-03-23T01:44:21.024Z,99.99
2018-03-23T01:45:21.065Z,99.99
2018-03-23T01:46:21.126Z,99.99
2018-03-23T01:47:21.171Z,99.99
2018-03-23T01:48:21.189Z,99.99
2018-03-23T01:49:21.229Z,99.99
2018-03-23T01:50:21.270Z,99.99
2018-03-23T01:51:21.311Z,99.99
2018-03-23T01:52:21.375Z,99.99
2018-03-23T01:53:21.424Z,99.99
2018-03-23T01:54:21.438Z,99.99
2018-03-23T01:55:21.479Z,99.99
2018-03-23T01:56:21.520Z,99.99
2018-03-23T01:57:21.559Z,99.99
2018-03-23T01:58:21.621Z,99.99
2018-03-23T01:59:21.642Z,99.99
2018-03-23T02:00:21.687Z,99.99
2018-03-23T02:01:21.725Z,99.99
2018-03-23T02:02:21.765Z,99.99
2018-03-23T02:03:21.836Z,99.99
2018-03-23T02:04:21.871Z,99.99
2018-03-23T02:05:21.888Z,99.99
2018-03-23T02:06:21.937Z,99.99
2018-03-23T02:07:21.973Z,99.99
2018-03-23T02:08:22.015Z,99.99
2018-03-23T02:09:22.084Z,99.99
2018-03-23T02:10:22.100Z,99.99
2018-03-23T02:11:22.138Z,99.99
2018-03-23T02:12:22.180Z,99.99
2018-03-23T02:13:22.221Z,99.99
2018-03-23T02:14:22.298Z,99.99
2018-03-23T02:15:22.335Z,99.99
2018-03-23T02:16:22.344Z,99.99
2018-03-23T02:17:22.396Z,99.99
2018-03-23T02:18:22.425Z,99.99
2018-03-23T02:19:22.469Z,99.99
2018-03-23T02:20:22.547Z,99.99
2018-03-23T02:21:22.553Z,99.99
2018-03-23T02:22:22.592Z,99.99
2018-03-23T02:23:22.632Z,99.99
2018-03-23T02:24:22.677Z,99.99
2018-03-23T02:25:22.739Z,99.99
2018-03-23T02:26:22.776Z,99.99
2018-03-23T02:27:22.798Z,99.99
2018-03-23T02:28:22.841Z,99.99
2018-03-23T02:29:22.881Z,99.99
2018-03-23T02:30:22.926Z,99.99
2018-03-23T02:31:22.995Z,99.99
2018-03-23T02:32:23.006Z,99.99
2018-03-23T02:33:23.048Z,99.99
2018-03-23T02:34:23.090Z,99.99
2018-03-23T02:35:23.131Z,99.99
2018-03-23T02:36:23.213Z,99.99
2018-03-23T02:37:23.215Z,99.99
2018-03-23T02:38:23.255Z,99.99
2018-03-23T02:39:23.300Z,99.99
2018-03-23T02:40:23.338Z,99.99
2018-03-23T02:41:23.416Z,99.99
2018-03-23T02:42:23.418Z,99.99
2018-03-23T02:43:23.472Z,99.99
2018-03-23T02:44:23.505Z,99.99
2018-03-23T02:45:23.543Z,99.99
2018-03-23T02:46:23.614Z,99.99
2018-03-23T02:47:23.628Z,99.99
2018-03-23T02:48:23.668Z,99.99
2018-03-23T02:49:23.712Z,99.99
2018-03-23T02:50:23.765Z,99.99
2018-03-23T02:51:23.833Z,99.99
2018-03-23T02:52:23.836Z,99.99
2018-03-23T02:53:23.876Z,99.99
2018-03-23T02:54:23.916Z,99.99
2018-03-23T02:55:23.958Z,99.99
2018-03-23T02:56:24.023Z,99.99
2018-03-23T02:57:24.042Z,99.99
2018-03-23T02:58:24.080Z,99.99
2018-03-23T02:59:24.162Z,99.99
2018-03-23T03:00:24.165Z,99.99
2018-03-23T03:01:24.211Z,99.99
2018-03-23T03:02:24.248Z,99.99
2018-03-23T03:03:24.290Z,99.99
2018-03-23T03:04:24.355Z,99.99
2018-03-23T03:05:24.375Z,99.99
2018-03-23T03:06:24.417Z,99.99
2018-03-23T03:07:24.479Z,99.99
2018-03-23T03:08:24.503Z,99.99
2018-03-23T03:09:24.542Z,99.99
2018-03-23T03:10:24.582Z,99.99
2018-03-23T03:11:24.646Z,99.99
2018-03-23T03:12:24.666Z,99.99
2018-03-23T03:13:24.782Z,99.99
2018-03-23T03:14:24.748Z,99.99
2018-03-23T03:15:24.790Z,99.99
2018-03-23T03:16:24.835Z,99.99
2018-03-23T03:17:24.876Z,99.99
2018-03-23T03:18:24.936Z,99.99
2018-03-23T03:19:24.959Z,99.99
2018-03-23T03:20:24.997Z,99.99
2018-03-23T03:21:25.043Z,99.99
2018-03-23T03:22:25.083Z,99.99
2018-03-23T03:23:25.150Z,99.99
2018-03-23T03:24:25.193Z,99.99
2018-03-23T03:25:25.208Z,99.99
2018-03-23T03:26:25.245Z,99.99
2018-03-23T03:27:25.290Z,99.99
2018-03-23T03:28:25.332Z,99.99
2018-03-23T03:29:25.400Z,99.99
2018-03-23T03:30:25.416Z,99.99
2018-03-23T03:31:25.457Z,99.99
2018-03-23T03:32:25.495Z,99.99
2018-03-23T03:33:25.536Z,99.99
2018-03-23T03:34:25.601Z,99.99
2018-03-23T03:35:25.621Z,99.99
2018-03-23T03:36:25.699Z,99.99
2018-03-23T03:37:25.704Z,99.99
2018-03-23T03:38:25.745Z,99.99
2018-03-23T03:39:25.812Z,99.99
2018-03-23T03:40:25.854Z,99.99
2018-03-23T03:41:25.871Z,99.99
2018-03-23T03:42:25.911Z,99.99
2018-03-23T03:43:25.952Z,99.99
2018-03-23T03:44:25.994Z,99.99
2018-03-23T03:45:26.058Z,99.99
2018-03-23T03:46:26.075Z,99.99
2018-03-23T03:47:26.116Z,99.99
2018-03-23T03:48:26.159Z,99.99
2018-03-23T03:49:26.198Z,99.99
2018-03-23T03:50:26.266Z,99.99
2018-03-23T03:51:26.282Z,99.99
2018-03-23T03:52:26.326Z,99.99
2018-03-23T03:53:26.365Z,99.99
2018-03-23T03:54:26.410Z,99.99
2018-03-23T03:55:26.486Z,99.99
2018-03-23T03:56:26.489Z,99.99
2018-03-23T03:57:26.534Z,99.99
2018-03-23T03:58:26.571Z,99.99
2018-03-23T03:59:26.613Z,99.99
2018-03-23T04:00:26.685Z,99.99
2018-03-23T04:01:26.699Z,99.99
2018-03-23T04:02:26.742Z,99.99
2018-03-23T04:03:26.785Z,99.99
2018-03-23T04:04:26.821Z,99.99
2018-03-23T04:05:26.888Z,99.99
2018-03-23T04:06:26.905Z,99.99
2018-03-23T04:07:26.971Z,99.99
2018-03-23T04:08:26.987Z,99.99
2018-03-23T04:09:27.032Z,99.99
2018-03-23T04:10:27.069Z,99.99
2018-03-23T04:11:27.112Z,99.99
2018-03-23T04:12:27.177Z,99.99
2018-03-23T04:13:27.194Z,99.99
2018-03-23T04:14:27.235Z,99.99
2018-03-23T04:15:27.277Z,99.99
2018-03-23T04:16:27.318Z,99.99
2018-03-23T04:17:27.385Z,99.99
2018-03-23T04:18:27.401Z,99.99
2018-03-23T04:19:27.446Z,99.99
2018-03-23T04:20:27.497Z,99.99
2018-03-23T04:21:27.528Z,99.99
2018-03-23T04:22:27.594Z,99.99
2018-03-23T04:23:27.618Z,99.99
2018-03-23T04:24:27.655Z,99.99
2018-03-23T04:25:27.695Z,99.99
2018-03-23T04:26:27.734Z,99.99
2018-03-23T04:27:27.800Z,99.99
2018-03-23T04:28:27.818Z,99.99
2018-03-23T04:29:27.884Z,99.99
2018-03-23T04:30:27.903Z,99.99
2018-03-23T04:31:27.944Z,99.99
2018-03-23T04:32:27.994Z,99.99
2018-03-23T04:33:28.033Z,99.99
2018-03-23T04:34:28.107Z,99.99
2018-03-23T04:35:28.112Z,99.99
2018-03-23T04:36:28.153Z,99.99
2018-03-23T04:37:28.196Z,99.99
2018-03-23T04:38:28.236Z,99.99
2018-03-23T04:39:28.299Z,99.99
2018-03-23T04:40:28.318Z,99.99
2018-03-23T04:41:28.392Z,99.99
2018-03-23T04:42:28.403Z,99.99
2018-03-23T04:43:28.505Z,99.99
2018-03-23T04:44:28.488Z,99.99
2018-03-23T04:45:28.530Z,99.99
2018-03-23T04:46:28.593Z,99.99
2018-03-23T04:47:28.612Z,99.99
2018-03-23T04:48:28.653Z,99.99
2018-03-23T04:49:28.695Z,99.99
2018-03-23T04:50:28.769Z,99.99
2018-03-23T04:51:28.781Z,99.99
2018-03-23T04:52:28.821Z,99.99
2018-03-23T04:53:28.865Z,99.99
2018-03-23T04:54:28.904Z,99.99
2018-03-23T04:55:28.970Z,99.99
2018-03-23T04:56:28.987Z,99.99
2018-03-23T04:57:29.055Z,99.99
2018-03-23T04:58:29.071Z,99.99
2018-03-23T04:59:29.112Z,99.99
2018-03-23T05:00:29.156Z,99.99
2018-03-23T05:01:29.228Z,99.99
2018-03-23T05:02:29.238Z,99.99
2018-03-23T05:03:29.304Z,99.99
2018-03-23T05:04:29.322Z,99.99
2018-03-23T05:05:29.366Z,99.99
2018-03-23T05:06:29.434Z,99.99
2018-03-23T05:07:29.451Z,99.99
2018-03-23T05:08:29.489Z,99.99
2018-03-23T05:09:29.558Z,99.99
2018-03-23T05:10:29.572Z,99.99
2018-03-23T05:11:29.616Z,99.99
2018-03-23T05:12:29.677Z,99.99
2018-03-23T05:13:29.701Z,99.99
2018-03-23T05:14:29.770Z,99.99
2018-03-23T05:15:29.792Z,99.99
2018-03-23T05:16:29.827Z,99.99
2018-03-23T05:17:29.870Z,99.99
2018-03-23T05:18:29.956Z,99.99
2018-03-23T05:19:29.953Z,99.99
2018-03-23T05:20:29.998Z,99.99
2018-03-23T05:21:30.852Z,99.99
2018-03-23T05:22:30.078Z,99.99
2018-03-23T05:23:30.150Z,99.99
2018-03-23T05:24:30.163Z,99.99
2018-03-23T05:25:30.204Z,99.99
2018-03-23T05:26:30.248Z,99.99
2018-03-23T05:27:30.289Z,99.99
2018-03-23T05:28:30.352Z,99.99
2018-03-23T05:29:30.370Z,99.99
2018-03-23T05:30:30.442Z,99.99
2018-03-23T05:31:30.456Z,99.99
2018-03-23T05:32:30.501Z,99.99
2018-03-23T05:33:30.540Z,99.99
2018-03-23T05:34:30.582Z,99.99
2018-03-23T05:35:30.667Z,99.99
2018-03-23T05:36:30.664Z,99.99
2018-03-23T05:37:30.716Z,99.99
2018-03-23T05:38:30.748Z,99.99
2018-03-23T05:39:30.813Z,99.99
2018-03-23T05:40:30.873Z,99.99
2018-03-23T05:41:30.878Z,99.99
2018-03-23T05:42:30.918Z,99.99
2018-03-23T05:43:30.958Z,99.99
2018-03-23T05:44:31.000Z,99.99
2018-03-23T05:45:31.073Z,99.99
2018-03-23T05:46:31.087Z,99.99
2018-03-23T05:47:31.129Z,99.99
2018-03-23T05:48:31.168Z,99.99
2018-03-23T05:49:31.211Z,99.99
2018-03-23T05:50:31.289Z,99.99
2018-03-23T05:51:31.296Z,99.99
2018-03-23T05:52:31.337Z,99.99
2018-03-23T05:53:31.379Z,99.99
2018-03-23T05:54:31.417Z,99.99
2018-03-23T05:55:31.484Z,99.99
2018-03-23T05:56:31.528Z,99.99
2018-03-23T05:57:31.544Z,99.99
2018-03-23T05:58:31.586Z,99.99
2018-03-23T05:59:31.628Z,99.99
2018-03-23T06:00:31.701Z,99.99
2018-03-23T06:01:31.718Z,99.99
2018-03-23T06:02:31.754Z,99.99
2018-03-23T06:03:31.846Z,99.99
2018-03-23T06:04:31.844Z,99.99
2018-03-23T06:05:31.902Z,99.99
2018-03-23T06:06:32.064Z,99.99
2018-03-23T06:07:31.969Z,99.99
2018-03-23T06:08:32.008Z,99.99
2018-03-23T06:09:32.048Z,99.99
2018-03-23T06:10:32.093Z,99.99
2018-03-23T06:11:32.155Z,99.99
2018-03-23T06:12:32.174Z,99.99
2018-03-23T06:13:32.241Z,99.99
2018-03-23T06:14:32.258Z,99.99
2018-03-23T06:15:32.302Z,99.99
2018-03-23T06:16:32.347Z,99.99
2018-03-23T06:17:32.382Z,99.99
2018-03-23T06:18:32.511Z,99.99
2018-03-23T06:19:32.468Z,99.99
2018-03-23T06:20:32.509Z,99.99
2018-03-23T06:21:32.555Z,99.99
2018-03-23T06:22:32.593Z,99.99
2018-03-23T06:23:32.660Z,99.99
2018-03-23T06:24:32.675Z,99.99
2018-03-23T06:25:32.722Z,99.99
2018-03-23T06:26:32.759Z,99.99
2018-03-23T06:27:32.799Z,99.99
2018-03-23T06:28:32.875Z,99.99
2018-03-23T06:29:33.649Z,99.99
2018-03-23T06:30:32.926Z,99.99
2018-03-23T06:31:32.968Z,99.99
2018-03-23T06:32:33.008Z,99.99
2018-03-23T06:33:33.083Z,99.99
2018-03-23T06:34:33.090Z,99.99
2018-03-23T06:35:33.134Z,99.99
2018-03-23T06:36:33.180Z,99.99
2018-03-23T06:37:33.218Z,99.99
2018-03-23T06:38:33.323Z,99.99
2018-03-23T06:39:33.301Z,99.99
2018-03-23T06:40:33.340Z,99.99
2018-03-23T06:41:33.390Z,99.99
2018-03-23T06:42:33.423Z,99.99
2018-03-23T06:43:35.347Z,99.99
2018-03-23T06:44:33.505Z,99.99
2018-03-23T06:45:33.547Z,99.99
2018-03-23T06:46:33.588Z,99.99
2018-03-23T06:47:33.630Z,99.99
2018-03-23T06:48:33.753Z,99.99
2018-03-23T06:49:33.712Z,99.99
2018-03-23T06:50:33.753Z,99.99
2018-03-23T06:51:33.795Z,99.99
2018-03-23T06:52:33.837Z,99.99
2018-03-23T06:53:33.916Z,99.99
2018-03-23T06:54:33.922Z,99.99
2018-03-23T06:55:33.960Z,99.99
2018-03-23T06:56:34.001Z,99.99
2018-03-23T06:57:34.044Z,99.99
2018-03-23T06:58:34.115Z,99.99
2018-03-23T06:59:34.128Z,99.99
2018-03-23T07:00:34.168Z,99.99
2018-03-23T07:01:34.212Z,99.99
2018-03-23T07:02:34.251Z,99.99
2018-03-23T07:03:34.323Z,99.99
2018-03-23T07:04:34.334Z,99.99
2018-03-23T07:05:34.375Z,99.99
2018-03-23T07:06:34.426Z,99.99
2018-03-23T07:07:34.462Z,99.99
2018-03-23T07:08:34.679Z,99.99
2018-03-23T07:09:34.541Z,99.99
2018-03-23T07:10:34.584Z,99.99
2018-03-23T07:11:34.642Z,99.99
2018-03-23T07:12:34.666Z,99.99
2018-03-23T07:13:34.741Z,99.99
2018-03-23T07:14:34.751Z,99.99
2018-03-23T07:15:34.831Z,99.99
2018-03-23T07:16:35.346Z,99.99
2018-03-23T07:17:34.874Z,99.99
2018-03-23T07:18:34.939Z,99.99
2018-03-23T07:19:34.958Z,99.99
2018-03-23T07:20:35.021Z,99.99
2018-03-23T07:21:35.043Z,99.99
2018-03-23T07:22:35.084Z,99.99
2018-03-23T07:23:35.124Z,99.99
2018-03-23T07:24:35.171Z,99.99
2018-03-23T07:25:35.251Z,99.99
2018-03-23T07:26:35.252Z,99.99
2018-03-23T07:27:35.288Z,99.99
2018-03-23T07:28:35.331Z,99.99
2018-03-23T07:29:35.374Z,99.99
2018-03-23T07:30:35.456Z,99.99
2018-03-23T07:31:35.456Z,99.99
2018-03-23T07:32:35.497Z,99.99
2018-03-23T07:33:35.540Z,99.99
2018-03-23T07:34:35.581Z,99.99
2018-03-23T07:35:35.654Z,99.99
2018-03-23T07:36:35.665Z,99.99
2018-03-23T07:37:35.709Z,99.99
2018-03-23T07:38:35.749Z,99.99
2018-03-23T07:39:35.794Z,99.99
2018-03-23T07:40:35.864Z,99.99
2018-03-23T07:41:35.877Z,99.99
2018-03-23T07:42:35.917Z,99.99
2018-03-23T07:43:35.957Z,99.99
2018-03-23T07:44:35.998Z,99.99
2018-03-23T07:45:36.080Z,99.99
2018-03-23T07:46:36.083Z,99.99
2018-03-23T07:47:36.125Z,99.99
2018-03-23T07:48:36.165Z,99.99
2018-03-23T07:49:36.207Z,99.99
2018-03-23T07:50:36.281Z,99.99
2018-03-23T07:51:36.291Z,99.99
2018-03-23T07:52:36.333Z,99.99
2018-03-23T07:53:36.373Z,99.99
2018-03-23T07:54:36.417Z,99.99
2018-03-23T07:55:36.488Z,99.99
2018-03-23T07:56:36.500Z,99.99
2018-03-23T07:57:36.544Z,99.99
2018-03-23T07:58:36.582Z,99.99
2018-03-23T07:59:36.623Z,99.99
2018-03-23T08:00:36.690Z,99.99
2018-03-23T08:01:36.716Z,99.99
2018-03-23T08:02:37.639Z,99.99
2018-03-23T08:03:36.790Z,99.99
2018-03-23T08:04:36.833Z,99.99
2018-03-23T08:05:36.873Z,99.99
2018-03-23T08:06:36.917Z,99.99
2018-03-23T08:07:36.981Z,99.99
2018-03-23T08:08:37.002Z,99.99
2018-03-23T08:09:37.041Z,99.99
2018-03-23T08:10:37.086Z,99.99
2018-03-23T08:11:37.124Z,99.99
2018-03-23T08:12:37.198Z,99.99
2018-03-23T08:13:37.636Z,99.99
2018-03-23T08:14:37.300Z,99.99
2018-03-23T08:15:37.291Z,99.99
2018-03-23T08:16:37.344Z,99.99
2018-03-23T08:17:37.380Z,99.99
2018-03-23T08:18:37.418Z,99.99
2018-03-23T08:19:37.488Z,99.99
2018-03-23T08:20:37.502Z,99.99
2018-03-23T08:21:37.546Z,99.99
2018-03-23T08:22:37.586Z,99.99
2018-03-23T08:23:37.626Z,99.99
2018-03-23T08:24:37.698Z,99.99
2018-03-23T08:25:37.711Z,99.99
2018-03-23T08:26:37.752Z,99.99
2018-03-23T08:27:37.798Z,99.99
2018-03-23T08:28:37.836Z,99.99
2018-03-23T08:29:37.911Z,99.99
2018-03-23T08:30:37.921Z,99.99
2018-03-23T08:31:37.965Z,99.99
2018-03-23T08:32:38.006Z,99.99
2018-03-23T08:33:38.051Z,99.99
2018-03-23T08:34:38.117Z,99.99
2018-03-23T08:35:38.131Z,99.99
2018-03-23T08:36:38.174Z,99.99
2018-03-23T08:37:38.218Z,99.99
2018-03-23T08:38:38.258Z,99.99
2018-03-23T08:39:38.327Z,99.99
2018-03-23T08:40:38.370Z,99.99
2018-03-23T08:41:38.387Z,99.99
2018-03-23T08:42:38.427Z,99.99
2018-03-23T08:43:38.469Z,99.99
2018-03-23T08:44:38.515Z,99.99
2018-03-23T08:45:38.592Z,99.99
2018-03-23T08:46:38.601Z,99.99
2018-03-23T08:47:38.645Z,99.99
2018-03-23T08:48:38.684Z,99.99
2018-03-23T08:49:38.730Z,99.99
2018-03-23T08:50:38.798Z,99.99
2018-03-23T08:51:38.814Z,99.99
2018-03-23T08:52:38.858Z,99.99
2018-03-23T08:53:38.897Z,99.99
2018-03-23T08:54:38.946Z,99.99
2018-03-23T08:55:39.022Z,99.99
2018-03-23T08:56:39.052Z,99.99
2018-03-23T08:57:39.071Z,99.99
2018-03-23T08:58:39.116Z,99.99
2018-03-23T08:59:39.154Z,99.99
2018-03-23T09:00:39.197Z,99.99
2018-03-23T09:01:39.264Z,99.99
2018-03-23T09:02:39.283Z,99.99
2018-03-23T09:03:39.326Z,99.99
2018-03-23T09:04:39.378Z,99.99
2018-03-23T09:05:39.414Z,99.99
2018-03-23T09:06:39.479Z,99.99
2018-03-23T09:07:39.500Z,99.99
2018-03-23T09:08:39.550Z,99.99
2018-03-23T09:09:39.597Z,99.99
2018-03-23T09:10:39.627Z,99.99
2018-03-23T09:11:39.704Z,99.99
2018-03-23T09:12:39.713Z,99.99
2018-03-23T09:13:39.757Z,99.99
2018-03-23T09:14:39.802Z,99.99
2018-03-23T09:15:39.849Z,99.99
2018-03-23T09:16:39.931Z,99.99
2018-03-23T09:17:39.931Z,99.99
2018-03-23T09:18:39.998Z,99.99
2018-03-23T09:19:40.017Z,99.99
2018-03-23T09:20:40.066Z,99.99
2018-03-23T09:21:40.107Z,99.99
2018-03-23T09:22:41.137Z,99.99
2018-03-23T09:23:40.216Z,99.99
2018-03-23T09:24:40.241Z,99.99
2018-03-23T09:25:40.283Z,99.99
2018-03-23T09:26:40.841Z,97.92
2018-03-23T09:27:40.403Z,98.40
2018-03-23T09:28:40.416Z,98.97
2018-03-23T09:29:40.465Z,98.69
2018-03-23T09:30:40.509Z,99.99
2018-03-23T09:31:40.560Z,99.99
2018-03-23T09:32:40.624Z,99.69
2018-03-23T09:33:40.645Z,97.45
2018-03-23T09:34:40.715Z,94.70
2018-03-23T09:35:40.749Z,95.51
2018-03-23T09:36:40.782Z,96.46
2018-03-23T09:37:40.827Z,92.03
2018-03-23T09:38:40.896Z,91.18
2018-03-23T09:39:40.943Z,91.42
2018-03-23T09:40:40.966Z,93.65
2018-03-23T09:41:41.012Z,92.51
2018-03-23T09:42:41.060Z,90.42
2018-03-23T09:43:41.126Z,93.84
2018-03-23T09:44:41.150Z,93.18
2018-03-23T09:45:41.222Z,88.52
2018-03-23T09:46:41.244Z,90.42
2018-03-23T09:47:41.295Z,91.33
2018-03-23T09:48:41.367Z,95.27
2018-03-23T09:49:41.390Z,93.13
2018-03-23T09:50:41.456Z,92.27
2018-03-23T09:51:41.481Z,92.18
2018-03-23T09:52:41.531Z,90.56
2018-03-23T09:53:41.577Z,88.42
2018-03-23T09:54:41.657Z,88.18
2018-03-23T09:55:41.696Z,87.71
2018-03-23T09:56:42.641Z,91.51
2018-03-23T09:57:41.766Z,88.09
2018-03-23T09:58:42.645Z,87.08
2018-03-23T09:59:41.863Z,87.46
2018-03-23T10:00:41.939Z,85.28
2018-03-23T10:01:41.959Z,87.66
2018-03-23T10:02:42.006Z,90.89
2018-03-23T10:03:42.094Z,93.13
2018-03-23T10:04:42.102Z,91.51
2018-03-23T10:05:42.179Z,89.42
2018-03-23T10:06:42.201Z,85.99
2018-03-23T10:07:42.249Z,86.66
2018-03-23T10:08:42.324Z,86.09
2018-03-23T10:09:42.344Z,87.56
2018-03-23T10:10:42.389Z,87.42
2018-03-23T10:11:42.469Z,85.52
2018-03-23T10:12:42.484Z,86.61
2018-03-23T10:13:42.534Z,85.13
2018-03-23T10:14:42.586Z,85.13
2018-03-23T10:15:42.630Z,83.75
2018-03-23T10:16:42.703Z,84.38
2018-03-23T10:17:42.728Z,84.89
2018-03-23T10:18:42.776Z,85.66
2018-03-23T10:19:42.848Z,84.33
2018-03-23T10:20:42.909Z,83.94
2018-03-23T10:21:42.957Z,83.85
2018-03-23T10:22:42.967Z,83.56
2018-03-23T10:23:43.019Z,83.85
2018-03-23T10:24:43.093Z,85.41
2018-03-23T10:25:43.118Z,85.55
2018-03-23T10:26:43.165Z,81.13
2018-03-23T10:27:43.213Z,83.98
2018-03-23T10:28:43.261Z,86.41
2018-03-23T10:29:43.339Z,79.93
2018-03-23T10:30:43.357Z,78.17
2018-03-23T10:31:43.406Z,80.36
2018-03-23T10:32:43.457Z,80.55
2018-03-23T10:33:43.502Z,79.41
2018-03-23T10:34:43.582Z,81.07
2018-03-23T10:35:43.603Z,82.07
2018-03-23T10:36:43.649Z,78.25
2018-03-23T10:37:43.702Z,79.44
2018-03-23T10:38:43.765Z,79.15
2018-03-23T10:39:43.837Z,76.14
2018-03-23T10:40:43.850Z,71.39
2018-03-23T10:41:43.896Z,72.24
2018-03-23T10:42:43.945Z,75.76
2018-03-23T10:43:43.997Z,77.85
2018-03-23T10:44:44.073Z,79.41
2018-03-23T10:45:44.101Z,79.70
2018-03-23T10:46:44.224Z,78.46
2018-03-23T10:47:44.193Z,78.37
2018-03-23T10:48:44.244Z,77.66
2018-03-23T10:49:44.297Z,77.66
2018-03-23T10:50:44.374Z,80.61
2018-03-23T10:51:44.390Z,81.51
2018-03-23T10:52:44.493Z,79.57
2018-03-23T10:53:44.492Z,77.76
2018-03-23T10:54:44.538Z,78.33
2018-03-23T10:55:44.613Z,78.94
2018-03-23T10:56:44.636Z,79.64
2018-03-23T10:57:44.713Z,78.37
2018-03-23T10:58:44.735Z,77.83
2018-03-23T10:59:44.784Z,77.01
2018-03-23T11:00:44.836Z,75.59
2018-03-23T11:01:44.932Z,80.20
2018-03-23T11:02:44.967Z,79.38
2018-03-23T11:03:44.980Z,76.62
2018-03-23T11:04:45.030Z,75.47
2018-03-23T11:05:45.080Z,74.23
2018-03-23T11:06:45.129Z,76.52
2018-03-23T11:07:45.207Z,73.69
2018-03-23T11:08:45.227Z,71.59
2018-03-23T11:09:45.280Z,70.13
2018-03-23T11:10:45.329Z,70.22
2018-03-23T11:11:45.377Z,71.08
2018-03-23T11:12:45.465Z,70.92
2018-03-23T11:13:45.484Z,74.37
2018-03-23T11:14:45.529Z,72.17
2018-03-23T11:15:45.582Z,71.41
2018-03-23T11:16:45.630Z,69.59
2018-03-23T11:17:45.717Z,69.40
2018-03-23T11:18:45.736Z,68.03
2018-03-23T11:19:45.786Z,69.33
2018-03-23T11:20:45.831Z,71.11
2018-03-23T11:21:45.884Z,70.78
2018-03-23T11:22:45.967Z,74.12
2018-03-23T11:23:45.983Z,75.04
2018-03-23T11:24:46.033Z,75.26
2018-03-23T11:25:46.085Z,75.45
2018-03-23T11:26:46.136Z,74.69
2018-03-23T11:27:46.209Z,75.84
2018-03-23T11:28:46.239Z,77.17
2018-03-23T11:29:46.287Z,74.82
2018-03-23T11:30:46.338Z,74.35
2018-03-23T11:31:46.418Z,74.96
2018-03-23T11:32:46.440Z,70.67
2018-03-23T11:33:46.516Z,71.48
2018-03-23T11:34:46.538Z,72.92
2018-03-23T11:35:46.592Z,73.21
2018-03-23T11:36:46.640Z,72.19
2018-03-23T11:37:46.717Z,71.77
2018-03-23T11:38:46.766Z,73.45
2018-03-23T11:39:46.791Z,73.89
2018-03-23T11:40:46.849Z,76.40
2018-03-23T11:41:46.894Z,74.02
2018-03-23T11:42:46.974Z,73.01
2018-03-23T11:43:46.993Z,71.17
2018-03-23T11:44:47.109Z,72.50
2018-03-23T11:45:47.096Z,73.58
2018-03-23T11:46:47.145Z,73.81
2018-03-23T11:47:47.218Z,74.01
2018-03-23T11:48:47.246Z,70.86
2018-03-23T11:49:47.298Z,70.19
2018-03-23T11:50:47.412Z,71.04
2018-03-23T11:51:47.397Z,69.71
2018-03-23T11:52:47.450Z,69.68
2018-03-23T11:53:47.499Z,70.21
2018-03-23T11:54:47.549Z,71.70
2018-03-23T11:55:47.636Z,73.44
2018-03-23T11:56:47.653Z,76.29
2018-03-23T11:57:47.702Z,78.90
2018-03-23T11:58:47.756Z,77.09
2018-03-23T11:59:47.806Z,76.42
2018-03-23T12:00:47.876Z,76.37
2018-03-23T12:01:47.900Z,74.52
2018-03-23T12:02:47.953Z,75.76
2018-03-23T12:03:48.007Z,75.62
2018-03-23T12:04:48.049Z,77.15
2018-03-23T12:05:48.123Z,78.57
2018-03-23T12:06:48.174Z,79.91
2018-03-23T12:07:48.198Z,79.43
2018-03-23T12:08:48.248Z,78.33
2018-03-23T12:09:48.297Z,76.81
2018-03-23T12:10:48.353Z,76.10
2018-03-23T12:11:48.424Z,77.47
2018-03-23T12:12:48.444Z,79.03
2018-03-23T12:13:48.499Z,76.65
2018-03-23T12:14:48.544Z,74.46
2018-03-23T12:15:48.593Z,74.56
2018-03-23T12:16:48.670Z,74.80
2018-03-23T12:17:48.690Z,76.61
2018-03-23T12:18:48.740Z,78.14
2018-03-23T12:19:48.788Z,77.80
2018-03-23T12:20:48.837Z,77.80
2018-03-23T12:21:48.926Z,76.08
2018-03-23T12:22:48.936Z,75.04
2018-03-23T12:23:48.983Z,75.60
2018-03-23T12:24:49.035Z,76.31
2018-03-23T12:25:49.087Z,75.26
2018-03-23T12:26:49.158Z,74.06
2018-03-23T12:27:49.202Z,72.48
2018-03-23T12:28:49.237Z,71.56
2018-03-23T12:29:50.177Z,70.07
2018-03-23T12:30:49.327Z,67.42
2018-03-23T12:31:49.402Z,70.00
2018-03-23T12:32:49.426Z,73.56
2018-03-23T12:33:49.481Z,74.08
2018-03-23T12:34:49.551Z,72.11
2018-03-23T12:35:49.580Z,66.15
2018-03-23T12:36:49.670Z,65.71
2018-03-23T12:37:49.686Z,65.42
2018-03-23T12:38:49.739Z,64.81
2018-03-23T12:39:49.783Z,65.87
2018-03-23T12:40:49.834Z,66.85
2018-03-23T12:41:49.914Z,68.63
2018-03-23T12:42:49.963Z,70.59
2018-03-23T12:43:49.993Z,72.41
2018-03-23T12:44:50.045Z,72.82
2018-03-23T12:45:50.109Z,72.63
2018-03-23T12:46:50.173Z,72.76
2018-03-23T12:47:50.222Z,70.09
2018-03-23T12:48:50.251Z,70.42
2018-03-23T12:49:50.302Z,71.37
2018-03-23T12:50:50.370Z,68.88
2018-03-23T12:51:50.406Z,68.12
2018-03-23T12:52:50.484Z,68.66